Latest Weather Observations for Tocal

IDN60801

Issued at 11:34 pm EDT Tuesday 3 March 2015 (issued every 30 minutes, with the page automatically refreshed every 10 minutes)

About weather observations | Map of weather stations | Latest weather observations for NSW | Other Formats
Station Details ID: 061250 Name: TOCAL AWS Lat: -32.63 Lon: 151.59 Height: 30.0 m
Data from the previous 72 hours. | See also: Recent months at Tocal
Date/Time
EDT
Temp
°C
App
Temp
°C
Dew
Point
Rel
Hum
%
Delta-T
°C
Wind Press
QNH
hPa
Press
MSL
hPa
Rain
since 9 am
mm
Dir
 
Spd
km/h
Gust
km/h
Spd
kts
Gust
kts
03/11:30pm 22.3 23.2 18.5 79 2.4 SSE 11 15 6 8 - - 0.0
03/11:00pm 22.7 24.4 18.4 76 2.7 S 7 9 4 5 - - 0.0
03/10:30pm 22.9 25.2 18.6 77 2.7 WSW 4 7 2 4 - - 0.0
03/10:00pm 23.1 24.0 18.5 75 2.9 SE 11 15 6 8 - - 0.0
03/09:30pm 23.7 24.6 18.5 72 3.3 SSE 11 15 6 8 - - 0.0
03/09:00pm 24.1 25.1 18.6 71 3.5 SSE 11 15 6 8 - - 0.0
03/08:30pm 24.5 26.0 18.8 70 3.6 E 9 17 5 9 - - 0.0
03/08:00pm 24.7 26.1 18.7 69 3.8 SE 9 13 5 7 - - 0.0
03/07:30pm 25.0 25.9 18.5 67 4.1 S 11 19 6 10 - - 0.0
03/07:00pm 26.5 27.4 18.5 61 5.1 SSE 11 17 6 9 - - 0.0
03/06:30pm 27.3 28.4 18.9 60 5.4 SSE 11 15 6 8 - - 0.0
03/06:00pm 28.1 28.7 18.6 56 6.1 SE 13 19 7 10 - - 0.0
03/05:30pm 28.6 28.8 18.5 54 6.5 SSE 15 24 8 13 - - 0.0
03/05:00pm 30.1 30.0 18.8 50 7.3 S 17 30 9 16 - - 0.0
03/04:30pm 30.8 31.8 17.8 45 8.3 S 9 19 5 10 - - 0.0
03/04:00pm 31.2 31.6 16.4 41 9.3 S 9 20 5 11 - - 0.0
03/03:30pm 31.3 32.5 17.3 43 8.9 NE 7 11 4 6 - - 0.0
03/03:00pm 29.8 30.6 15.9 43 8.6 ESE 6 11 3 6 - - 0.0
03/02:30pm 29.5 29.7 15.7 43 8.5 ENE 9 13 5 7 - - 0.0
03/02:00pm 29.4 30.8 17.8 49 7.4 N 7 13 4 7 - - 0.0
03/01:30pm 27.6 27.7 16.5 50 6.9 ESE 11 15 6 8 - - 0.0
03/01:00pm 26.6 27.7 17.2 56 5.9 N 7 15 4 8 - - 0.0
03/12:30pm 25.9 26.8 16.5 56 5.8 NE 7 11 4 6 - - 0.0
03/12:00pm 25.4 26.0 16.8 59 5.3 NNE 9 11 5 6 - - 0.0
03/11:30am 24.4 25.5 17.0 63 4.6 NNE 7 11 4 6 - - 0.0
03/11:00am 23.5 24.0 16.6 65 4.2 NNE 9 13 5 7 - - 0.0
03/10:30am 22.9 24.2 16.1 65 4.1 SW 4 11 2 6 - - 0.0
03/10:00am 21.4 22.4 16.4 73 3.0 NNE 6 9 3 5 - - 0.0
03/09:30am 20.2 21.2 16.4 79 2.3 NE 6 9 3 5 - - 0.0
03/09:00am 18.4 20.1 16.2 87 1.3 N 2 6 1 3 - - 0.0
03/08:30am 16.4 18.2 15.5 94 0.5 CALM 0 0 0 0 - - 0.0
03/08:00am 14.4 15.7 14.0 97 0.2 CALM 0 0 0 0 - - 0.0
03/07:30am 13.3 14.3 13.1 99 0.1 CALM 0 0 0 0 - - 0.0
03/07:00am 12.8 13.6 12.6 99 0.1 CALM 0 0 0 0 - - 0.0
03/06:30am 12.9 13.7 12.7 99 0.1 CALM 0 0 0 0 - - 0.0
03/06:00am 13.0 13.9 13.0 100 0.0 CALM 0 0 0 0 - - 0.0
03/05:30am 14.0 14.4 13.8 99 0.1 SW 4 7 2 4 - - 0.0
03/05:00am 13.1 12.9 13.1 100 0.0 NW 6 7 3 4 - - 0.0
03/04:30am 13.8 14.9 13.4 97 0.2 CALM 0 0 0 0 - - 0.0
03/04:00am 13.6 14.7 13.4 99 0.1 CALM 0 0 0 0 - - 0.0
03/03:30am 13.9 15.0 13.5 97 0.2 CALM 0 0 0 0 - - 0.0
03/03:00am 14.1 15.3 13.7 97 0.2 CALM 0 0 0 0 - - 0.0
03/02:30am 14.6 15.2 14.2 97 0.2 W 4 7 2 4 - - 0.0
03/02:00am 15.0 16.4 14.5 97 0.3 CALM 0 0 0 0 - - 0.0
03/01:30am 15.9 17.5 14.9 94 0.6 CALM 0 0 0 0 - - 0.0
03/01:00am 16.0 17.7 15.1 94 0.5 CALM 0 0 0 0 - - 0.0
03/12:30am 16.6 18.3 15.2 91 0.8 CALM 0 0 0 0 - - 0.0
03/12:00am 17.3 19.2 15.8 91 0.9 CALM 0 0 0 0 - - 0.0
 
Date/Time
EDT
Temp
°C
App
Temp
°C
Dew
Point
Rel
Hum
%
Delta-T
°C
Wind Press
QNH
hPa
Press
MSL
hPa
Rain
since 9 am
mm
Dir
 
Spd
km/h
Gust
km/h
Spd
kts
Gust
kts
02/11:30pm 18.1 20.1 15.9 87 1.3 CALM 0 0 0 0 - - 0.0
02/11:00pm 19.0 20.7 15.1 78 2.3 CALM 0 0 0 0 - - 0.0
02/10:30pm 19.5 21.2 15.3 76 2.5 CALM 0 0 0 0 - - 0.0
02/10:00pm 19.4 21.4 16.0 81 2.0 CALM 0 0 0 0 - - 0.0
02/09:30pm 20.2 21.9 15.3 73 2.9 CALM 0 0 0 0 - - 0.0
02/09:00pm 20.6 20.9 14.4 67 3.6 SE 6 6 3 3 - - 0.0
02/08:30pm 20.7 20.9 14.2 66 3.8 ESE 6 7 3 4 - - 0.0
02/08:00pm 21.2 21.3 14.4 65 4.0 ESE 7 9 4 5 - - 0.0
02/07:30pm 21.6 21.1 13.8 61 4.5 ESE 9 13 5 7 - - 0.0
02/07:00pm 22.0 21.6 14.1 61 4.6 ESE 9 11 5 6 - - 0.0
02/06:30pm 22.5 22.0 13.9 58 5.0 ESE 9 13 5 7 - - 0.0
02/06:00pm 22.6 21.2 13.4 56 5.3 ESE 13 17 7 9 - - 0.0
02/05:30pm 22.9 22.0 13.8 56 5.3 ESE 11 15 6 8 - - 0.0
02/05:00pm 22.9 21.7 14.0 57 5.2 ESE 13 19 7 10 - - 0.0
02/04:30pm 22.6 21.4 13.9 58 5.1 ESE 13 17 7 9 - - 0.0
02/04:00pm 22.7 21.1 14.0 58 5.1 ESE 15 22 8 12 - - 0.0
02/03:30pm 22.6 22.1 15.0 62 4.5 E 11 15 6 8 - - 0.0
02/03:00pm 23.1 22.6 15.8 63 4.4 SE 13 19 7 10 - - 0.0
02/02:30pm 23.4 22.2 15.0 59 5.0 SE 15 24 8 13 - - 0.0
02/02:00pm 22.9 22.7 15.6 63 4.4 SSE 11 15 6 8 - - 0.0
02/01:30pm 22.8 22.6 15.6 64 4.3 SSE 11 19 6 10 - - 0.0
02/01:00pm 22.9 22.7 15.8 64 4.3 S 11 17 6 9 - - 0.0
02/12:30pm 22.8 22.8 16.2 66 4.0 S 11 17 6 9 - - 0.0
02/12:00pm 22.5 22.5 16.2 67 3.8 S 11 15 6 8 - - 0.0
02/11:30am 22.2 21.8 16.1 68 3.7 S 13 19 7 10 - - 0.0
02/11:00am 21.5 20.8 15.5 68 3.6 S 13 19 7 10 - - 0.0
02/10:30am 21.7 20.7 15.7 68 3.6 S 15 22 8 12 - - 0.0
02/10:00am 21.9 21.3 15.7 68 3.7 S 13 22 7 12 - - 0.0
02/09:30am 22.2 21.7 15.9 67 3.8 SSW 13 20 7 11 - - 0.0
02/09:00am 22.2 22.5 15.9 67 3.8 SSW 9 11 5 6 - - 6.2
02/08:30am 21.2 21.9 15.5 70 3.4 WSW 6 9 3 5 - - 6.2
02/08:00am 20.8 22.8 16.1 74 2.8 CALM 0 4 0 2 - - 6.2
02/07:30am 19.8 22.1 16.8 83 1.8 CALM 0 0 0 0 - - 6.2
02/07:00am 19.3 21.8 17.2 88 1.3 CALM 0 0 0 0 - - 6.2
02/06:30am 19.3 21.8 17.2 88 1.3 CALM 0 0 0 0 - - 6.2
02/06:00am 19.3 21.8 17.2 88 1.3 CALM 0 0 0 0 - - 6.2
02/05:30am 19.3 20.6 17.0 86 1.4 NW 6 7 3 4 - - 6.2
02/05:00am 19.4 20.8 17.3 88 1.3 W 6 7 3 4 - - 6.2
02/04:30am 19.4 20.6 16.8 85 1.6 SW 6 7 3 4 - - 6.2
02/04:00am 19.4 19.9 16.6 84 1.7 S 9 17 5 9 - - 6.2
02/03:30am 19.5 19.3 16.7 84 1.7 SSW 13 20 7 11 - - 6.2
02/03:00am 19.6 19.7 16.4 82 1.9 S 11 20 6 11 - - 6.2
02/02:30am 19.5 20.1 16.9 85 1.6 S 9 15 5 8 - - 6.2
02/02:00am 19.5 19.4 16.9 85 1.6 S 13 28 7 15 - - 6.2
02/01:30am 19.8 18.7 17.2 85 1.6 SSE 19 35 10 19 - - 6.2
02/01:00am 20.4 19.5 16.9 80 2.1 SSW 17 32 9 17 - - 6.2
02/12:30am 20.4 19.6 17.1 81 2.0 S 17 28 9 15 - - 6.2
02/12:00am 20.3 20.2 17.9 86 1.5 SSW 15 26 8 14 - - 6.2
 
Date/Time
EDT
Temp
°C
App
Temp
°C
Dew
Point
Rel
Hum
%
Delta-T
°C
Wind Press
QNH
hPa
Press
MSL
hPa
Rain
since 9 am
mm
Dir
 
Spd
km/h
Gust
km/h
Spd
kts
Gust
kts
01/11:30pm 20.4 21.0 18.6 89 1.1 SSW 13 22 7 12 - - 6.2
01/11:00pm 20.7 21.1 19.0 90 1.1 SSW 15 26 8 14 - - 6.2
01/10:30pm 21.0 21.2 20.2 95 0.5 SSW 19 32 10 17 - - 6.0
01/10:00pm 22.0 24.8 20.9 93 0.7 S 7 15 4 8 - - 3.4
01/09:30pm 22.0 25.0 20.9 93 0.7 S 6 7 3 4 - - 2.4
01/09:00pm 21.8 24.3 21.0 95 0.5 S 9 11 5 6 - - 2.4
01/08:30pm 21.6 25.4 21.0 96 0.4 SSW 2 9 1 5 - - 2.4
01/08:00pm 21.6 23.6 20.8 95 0.5 S 11 15 6 8 - - 2.4
01/07:30pm 21.9 24.3 20.8 93 0.7 SSW 9 15 5 8 - - 0.6
01/07:00pm 23.0 20.4 19.9 83 2.0 SSW 33 57 18 31 - - 0.0
01/06:36pm 27.0 24.7 18.5 59 5.4 SSW 28 50 15 27 - - 0.0
01/06:35pm 27.0 24.7 18.5 59 5.4 SSW 28 50 15 27 - - 0.0
01/06:30pm 31.6 30.5 14.4 35 10.5 W 13 22 7 12 - - 0.0
01/06:00pm 32.4 29.9 14.2 33 11.1 NW 20 30 11 16 - - 0.0
01/05:30pm 33.1 31.3 15.9 35 10.8 NW 20 35 11 19 - - 0.0
01/05:00pm 36.2 35.2 14.7 27 13.4 NW 13 22 7 12 - - 0.0
01/04:30pm 37.0 36.9 16.1 29 13.3 W 11 17 6 9 - - 0.0
01/04:00pm 35.4 34.6 15.1 29 12.7 NW 13 19 7 10 - - 0.0
01/03:30pm 35.8 35.5 16.5 31 12.3 N 13 19 7 10 - - 0.0
01/03:00pm 36.4 34.8 15.0 28 13.4 NW 17 33 9 18 - - 0.0
01/02:30pm 36.7 35.8 15.9 29 13.2 NW 15 28 8 15 - - 0.0
01/02:00pm 36.0 34.3 16.2 31 12.6 NW 20 30 11 16 - - 0.0
01/01:30pm 35.8 35.3 17.8 34 11.7 WNW 17 24 9 13 - - 0.0
01/01:00pm 35.3 35.3 18.9 38 10.8 NNW 17 26 9 14 - - 0.0
01/12:30pm 33.9 35.0 19.7 43 9.4 W 13 19 7 10 - - 0.0
01/12:00pm 32.9 36.0 21.4 50 7.8 E 7 13 4 7 - - 0.0
01/11:30am 31.0 34.3 21.5 57 6.4 E 6 9 3 5 - - 0.0
01/11:00am 29.7 31.9 20.3 57 6.2 NNE 9 13 5 7 - - 0.0
01/10:30am 28.5 30.9 20.1 60 5.5 ENE 7 9 4 5 - - 0.0
01/10:00am 26.5 29.0 20.2 68 4.1 NNE 7 9 4 5 - - 0.0
01/09:30am 25.4 28.1 20.2 73 3.4 ENE 6 7 3 4 - - 0.0
01/09:00am 23.6 26.9 19.9 80 2.4 NNE 2 6 1 3 - - 0.0
01/08:30am 21.5 24.7 19.8 90 1.1 N 2 6 1 3 - - 0.0
01/08:00am 20.3 23.6 19.0 92 0.8 CALM 0 0 0 0 - - 0.0
01/07:30am 19.2 21.9 18.7 97 0.3 WNW 2 6 1 3 - - 0.0
01/07:00am 18.5 20.4 18.5 100 0.0 WNW 6 7 3 4 - - 0.0
01/06:30am 18.7 21.8 18.7 100 0.0 CALM 0 0 0 0 - - 0.0
01/06:00am 18.4 21.4 18.4 100 0.0 CALM 0 0 0 0 - - 0.0
01/05:30am 18.0 19.7 18.0 100 0.0 NW 6 7 3 4 - - 0.0
01/05:00am 19.1 22.3 18.9 99 0.1 CALM 0 0 0 0 - - 0.0
01/04:30am 19.4 22.7 19.1 98 0.2 CALM 0 0 0 0 - - 0.0
01/04:00am 19.6 22.9 19.1 97 0.3 CALM 0 0 0 0 - - 0.0
01/03:30am 19.7 23.1 19.4 98 0.2 CALM 0 0 0 0 - - 0.0
01/03:00am 20.1 23.6 19.6 97 0.3 CALM 0 0 0 0 - - 0.0
01/02:30am 20.5 24.2 19.9 96 0.4 CALM 0 0 0 0 - - 0.0
01/02:00am 21.6 24.2 20.4 93 0.8 WSW 7 7 4 4 - - 0.0
01/01:30am 21.7 24.3 20.0 90 1.1 NW 6 7 3 4 - - 0.0
01/01:00am 22.7 25.3 20.4 87 1.5 N 7 9 4 5 - - 0.0
01/12:30am 23.4 27.0 20.6 84 1.8 N 2 7 1 4 - - 0.0
01/12:00am 23.6 27.7 20.7 84 1.9 CALM 0 0 0 0 - - 0.0

Other Formats:

Comma delimited format used in spreadsheet applications
http://www.bom.gov.au/fwo/IDN60801/IDN60801.94775.axf

JavaScript Object Notation format (JSON) in row-major order
http://www.bom.gov.au/fwo/IDN60801/IDN60801.94775.json